Time,TemperatureF,DewpointF,PressureIn,WindDirection,WindDirectionDegrees,WindSpeedMPH,WindSpeedGustMPH,Humidity,HourlyPrecipIn,Conditions,Clouds,dailyrainin,SoftwareType,DateUTC
2013-07-20 00:01:00,52.0,45.0,-100.00,West,270,11.0,17.0,76,0.01,,,0.33,,2013-07-20 08:01:00,
2013-07-20 00:11:00,52.0,45.0,-100.00,West,270,11.0,17.0,76,0.01,,,0.33,,2013-07-20 08:11:00,
2013-07-20 00:44:00,53.0,44.0,-100.00,West,275,12.0,20.0,73,0.00,,,0.33,,2013-07-20 08:44:00,
2013-07-20 00:52:00,52.0,45.0,-100.00,West,280,9.0,21.0,77,0.00,,,0.33,,2013-07-20 08:52:00,
2013-07-20 01:02:00,52.0,45.0,-100.00,West,280,9.0,21.0,77,0.00,,,0.33,,2013-07-20 09:02:00,
2013-07-20 01:11:00,52.0,45.0,-100.00,West,280,9.0,21.0,77,0.00,,,0.33,,2013-07-20 09:11:00,
2013-07-20 01:22:00,51.0,47.0,-100.00,West,280,9.0,16.0,86,0.00,,,0.32,,2013-07-20 09:22:00,
2013-07-20 01:33:00,51.0,47.0,-100.00,West,280,9.0,16.0,86,0.00,,,0.32,,2013-07-20 09:33:00,
2013-07-20 01:43:00,51.0,47.0,-100.00,West,280,9.0,16.0,86,0.00,,,0.32,,2013-07-20 09:43:00,
2013-07-20 02:01:00,51.0,48.0,-100.00,West,265,11.0,19.0,89,0.00,,,0.32,,2013-07-20 10:01:00,
2013-07-20 02:11:00,51.0,48.0,-100.00,West,265,11.0,19.0,89,0.00,,,0.32,,2013-07-20 10:11:00,
2013-07-20 02:21:00,51.0,48.0,-100.00,WNW,285,13.0,19.0,89,0.00,,,0.31,,2013-07-20 10:21:00,
2013-07-20 02:32:00,51.0,48.0,-100.00,WNW,285,13.0,19.0,89,0.00,,,0.31,,2013-07-20 10:32:00,
2013-07-20 02:42:00,51.0,48.0,-100.00,WNW,285,13.0,19.0,89,0.00,,,0.31,,2013-07-20 10:42:00,
2013-07-20 03:01:00,51.0,48.0,-100.00,West,270,12.0,23.0,89,0.00,,,0.29,,2013-07-20 11:01:00,
2013-07-20 03:11:00,51.0,48.0,-100.00,West,270,12.0,23.0,89,0.00,,,0.29,,2013-07-20 11:11:00,
2013-07-20 03:32:00,51.0,48.0,-100.00,West,275,10.0,22.0,89,0.00,,,0.29,,2013-07-20 11:32:00,
2013-07-20 03:43:00,51.0,48.0,-100.00,West,275,10.0,22.0,89,0.00,,,0.29,,2013-07-20 11:43:00,
2013-07-20 04:01:00,50.0,47.0,-100.00,WNW,285,9.0,19.0,89,0.01,,,0.30,,2013-07-20 12:01:00,
2013-07-20 04:11:00,50.0,47.0,-100.00,WNW,285,9.0,19.0,89,0.01,,,0.30,,2013-07-20 12:11:00,
2013-07-20 04:22:00,50.0,47.0,-100.00,West,270,12.0,19.0,90,0.01,,,0.30,,2013-07-20 12:22:00,
2013-07-20 04:32:00,50.0,47.0,-100.00,West,270,12.0,19.0,90,0.01,,,0.30,,2013-07-20 12:32:00,
2013-07-20 04:52:00,50.0,47.0,-100.00,West,280,11.0,20.0,90,0.01,,,0.31,,2013-07-20 12:52:00,
2013-07-20 05:01:00,50.0,47.0,-100.00,West,280,11.0,20.0,90,0.01,,,0.31,,2013-07-20 13:01:00,
2013-07-20 05:11:00,50.0,47.0,-100.00,West,280,11.0,20.0,90,0.01,,,0.31,,2013-07-20 13:11:00,
2013-07-20 05:32:00,49.0,47.0,-100.00,West,275,11.0,19.0,90,0.02,,,0.32,,2013-07-20 13:32:00,
2013-07-20 05:43:00,49.0,47.0,-100.00,West,275,11.0,19.0,90,0.02,,,0.32,,2013-07-20 13:43:00,
2013-07-20 06:02:00,49.0,47.0,-100.00,West,280,9.0,16.0,90,0.02,,,0.34,,2013-07-20 14:02:00,
2013-07-20 06:11:00,49.0,47.0,-100.00,West,280,9.0,16.0,90,0.02,,,0.34,,2013-07-20 14:11:00,
2013-07-20 06:32:00,49.0,46.0,-100.00,West,280,7.0,16.0,90,0.03,,,0.35,,2013-07-20 14:32:00,
2013-07-20 06:43:00,49.0,46.0,-100.00,West,280,7.0,16.0,90,0.03,,,0.35,,2013-07-20 14:43:00,
2013-07-20 07:01:00,49.0,46.0,-100.00,WNW,285,11.0,19.0,90,0.02,,,0.37,,2013-07-20 15:01:00,
2013-07-20 07:11:00,49.0,46.0,-100.00,WNW,285,11.0,19.0,90,0.02,,,0.37,,2013-07-20 15:11:00,
2013-07-20 07:33:00,49.0,46.0,-100.00,WNW,285,10.0,17.0,91,0.02,,,0.38,,2013-07-20 15:33:00,
2013-07-20 07:44:00,49.0,46.0,-100.00,WNW,285,10.0,17.0,91,0.02,,,0.38,,2013-07-20 15:44:00,
2013-07-20 08:01:00,49.0,46.0,-100.00,West,260,12.0,19.0,91,0.00,,,0.38,,2013-07-20 16:01:00,
2013-07-20 08:11:00,49.0,46.0,-100.00,West,260,12.0,19.0,91,0.00,,,0.38,,2013-07-20 16:11:00,
2013-07-20 08:20:00,49.0,46.0,-100.00,West,280,7.0,17.0,91,0.00,,,0.36,,2013-07-20 16:20:00,
2013-07-20 08:32:00,48.0,46.0,-100.00,West,265,12.0,17.0,91,0.00,,,0.38,,2013-07-20 16:32:00,
2013-07-20 08:43:00,48.0,46.0,-100.00,West,265,12.0,17.0,91,0.00,,,0.38,,2013-07-20 16:43:00,
2013-07-20 08:52:00,49.0,46.0,-100.00,West,280,7.0,17.0,91,0.00,,,0.36,,2013-07-20 16:52:00,
2013-07-20 09:02:00,49.0,46.0,-100.00,West,280,7.0,17.0,91,0.00,,,0.36,,2013-07-20 17:02:00,
2013-07-20 09:11:00,49.0,46.0,-100.00,West,280,7.0,17.0,91,0.00,,,0.36,,2013-07-20 17:11:00,
2013-07-20 09:43:00,49.0,46.0,-100.00,West,265,11.0,19.0,91,0.00,,,0.35,,2013-07-20 17:43:00,
2013-07-20 09:53:00,49.0,46.0,-100.00,WNW,285,9.0,16.0,90,0.00,,,0.30,,2013-07-20 17:53:00,
2013-07-20 10:01:00,49.0,46.0,-100.00,WNW,285,9.0,16.0,90,0.00,,,0.30,,2013-07-20 18:01:00,
2013-07-20 10:11:00,49.0,46.0,-100.00,WNW,285,9.0,16.0,90,0.00,,,0.30,,2013-07-20 18:11:00,
2013-07-20 10:35:00,49.0,46.0,-100.00,West,280,8.0,14.0,90,0.00,,,0.27,,2013-07-20 18:35:00,
2013-07-20 10:43:00,49.0,46.0,-100.00,West,280,8.0,14.0,90,0.00,,,0.27,,2013-07-20 18:43:00,
2013-07-20 11:04:00,49.0,46.0,-100.00,WNW,285,11.0,16.0,90,0.00,,,0.26,,2013-07-20 19:04:00,
2013-07-20 11:14:00,49.0,46.0,-100.00,WNW,285,11.0,16.0,90,0.00,,,0.26,,2013-07-20 19:14:00,
2013-07-20 11:43:00,49.0,46.0,-100.00,WSW,255,6.0,14.0,89,0.00,,,0.25,,2013-07-20 19:43:00,
2013-07-20 12:04:00,50.0,46.0,-100.00,WNW,285,7.0,16.0,87,0.00,,,0.25,,2013-07-20 20:04:00,
2013-07-20 12:14:00,50.0,46.0,-100.00,WNW,285,7.0,16.0,87,0.00,,,0.25,,2013-07-20 20:14:00,
2013-07-20 12:22:00,50.0,47.0,-100.00,West,265,7.0,14.0,89,0.00,,,0.25,,2013-07-20 20:22:00,
2013-07-20 12:32:00,50.0,47.0,-100.00,West,265,7.0,14.0,89,0.00,,,0.25,,2013-07-20 20:32:00,
2013-07-20 12:54:00,50.0,47.0,-100.00,West,270,8.0,12.0,89,0.01,,,0.26,,2013-07-20 20:54:00,
2013-07-20 13:02:00,50.0,47.0,-100.00,West,270,8.0,12.0,89,0.01,,,0.26,,2013-07-20 21:02:00,
2013-07-20 13:12:00,50.0,47.0,-100.00,West,270,8.0,12.0,89,0.01,,,0.26,,2013-07-20 21:12:00,
2013-07-20 13:33:00,50.0,47.0,-100.00,West,280,6.0,13.0,90,0.00,,,0.25,,2013-07-20 21:33:00,
2013-07-20 13:44:00,50.0,47.0,-100.00,West,280,6.0,13.0,90,0.00,,,0.25,,2013-07-20 21:44:00,
2013-07-20 13:54:00,50.0,48.0,-100.00,West,275,9.0,15.0,90,0.01,,,0.25,,2013-07-20 21:54:00,
2013-07-20 14:04:00,50.0,48.0,-100.00,West,275,9.0,15.0,90,0.01,,,0.25,,2013-07-20 22:04:00,
2013-07-20 14:13:00,50.0,48.0,-100.00,West,275,9.0,15.0,90,0.01,,,0.25,,2013-07-20 22:13:00,
2013-07-20 14:33:00,51.0,48.0,-100.00,WNW,285,6.0,17.0,90,0.00,,,0.25,,2013-07-20 22:33:00,
2013-07-20 14:45:00,51.0,48.0,-100.00,WNW,285,6.0,17.0,90,0.00,,,0.25,,2013-07-20 22:45:00,
2013-07-20 14:52:00,52.0,49.0,-100.00,West,260,6.0,14.0,89,0.00,,,0.23,,2013-07-20 22:52:00,
2013-07-20 15:03:00,52.0,49.0,-100.00,West,260,6.0,14.0,89,0.00,,,0.23,,2013-07-20 23:03:00,
2013-07-20 15:20:00,53.0,47.0,-100.00,West,270,8.0,12.0,82,0.00,,,0.20,,2013-07-20 23:20:00,
2013-07-20 15:36:00,52.0,47.0,-100.00,West,275,7.0,15.0,84,0.00,,,0.21,,2013-07-20 23:36:00,
2013-07-20 15:43:00,52.0,47.0,-100.00,West,275,7.0,15.0,84,0.00,,,0.21,,2013-07-20 23:43:00,
2013-07-20 15:54:00,53.0,47.0,-100.00,West,270,8.0,12.0,82,0.00,,,0.20,,2013-07-20 23:54:00,
2013-07-20 16:05:00,53.0,47.0,-100.00,West,270,8.0,12.0,82,0.00,,,0.20,,2013-07-21 00:05:00,
2013-07-20 16:13:00,53.0,47.0,-100.00,West,270,8.0,12.0,82,0.00,,,0.20,,2013-07-21 00:13:00,
2013-07-20 16:43:00,57.0,47.0,-100.00,West,270,6.0,12.0,68,0.00,,,0.16,,2013-07-21 00:43:00,
2013-07-20 16:54:00,57.0,43.0,-100.00,West,270,11.0,19.0,59,0.00,,,0.14,,2013-07-21 00:54:00,
2013-07-20 17:04:00,57.0,43.0,-100.00,West,270,11.0,19.0,59,0.00,,,0.14,,2013-07-21 01:04:00,
2013-07-20 17:11:00,57.0,43.0,-100.00,West,270,11.0,19.0,59,0.00,,,0.14,,2013-07-21 01:11:00,
2013-07-20 17:23:00,57.0,43.0,-100.00,WNW,285,7.0,18.0,60,0.00,,,0.14,,2013-07-21 01:23:00,
2013-07-20 17:35:00,57.0,43.0,-100.00,WNW,285,7.0,18.0,60,0.00,,,0.14,,2013-07-21 01:35:00,
2013-07-20 17:44:00,-999.0,-99.9,-100.00,WNW,285,7.0,18.0,-999,-99.99,,,-99.99,,2013-07-21 01:44:00,
2013-07-20 18:03:00,58.0,43.0,-100.00,West,280,9.0,15.0,57,0.00,,,0.14,,2013-07-21 02:03:00,
2013-07-20 18:13:00,58.0,43.0,-100.00,West,280,9.0,15.0,57,0.00,,,0.14,,2013-07-21 02:13:00,
2013-07-20 18:43:00,57.0,42.0,-100.00,West,275,7.0,13.0,57,0.00,,,0.13,,2013-07-21 02:43:00,
2013-07-20 18:53:00,56.0,43.0,-100.00,West,265,7.0,12.0,60,0.00,,,0.13,,2013-07-21 02:53:00,
2013-07-20 19:13:00,56.0,43.0,-100.00,West,265,7.0,12.0,60,0.00,,,0.13,,2013-07-21 03:13:00,
2013-07-20 19:33:00,56.0,43.0,-100.00,WNW,285,9.0,17.0,62,0.00,,,0.13,,2013-07-21 03:33:00,
2013-07-20 19:44:00,56.0,43.0,-100.00,WNW,285,9.0,17.0,62,0.00,,,0.13,,2013-07-21 03:44:00,
2013-07-20 19:53:00,55.0,44.0,-100.00,WNW,290,7.0,12.0,65,0.00,,,0.13,,2013-07-21 03:53:00,
2013-07-20 20:01:00,55.0,44.0,-100.00,WNW,290,7.0,12.0,65,0.00,,,0.13,,2013-07-21 04:01:00,
2013-07-20 20:11:00,55.0,44.0,-100.00,WNW,290,7.0,12.0,65,0.00,,,0.13,,2013-07-21 04:11:00,
2013-07-20 20:32:00,56.0,44.0,-100.00,West,275,7.0,12.0,65,0.00,,,0.13,,2013-07-21 04:32:00,
2013-07-20 20:43:00,56.0,44.0,-100.00,West,275,7.0,12.0,65,0.00,,,0.13,,2013-07-21 04:43:00,
2013-07-20 20:53:00,56.0,44.0,-100.00,WNW,285,8.0,14.0,64,0.00,,,0.13,,2013-07-21 04:53:00,
2013-07-20 21:02:00,56.0,44.0,-100.00,WNW,285,8.0,14.0,64,0.00,,,0.13,,2013-07-21 05:02:00,
2013-07-20 21:11:00,56.0,44.0,-100.00,WNW,285,8.0,14.0,64,0.00,,,0.13,,2013-07-21 05:11:00,
2013-07-20 21:32:00,55.0,44.0,-100.00,West,275,8.0,17.0,66,0.00,,,0.13,,2013-07-21 05:32:00,
2013-07-20 21:42:00,55.0,44.0,-100.00,West,275,8.0,17.0,66,0.00,,,0.13,,2013-07-21 05:42:00,
2013-07-20 21:52:00,54.0,44.0,-100.00,WNW,300,7.0,14.0,68,0.00,,,0.13,,2013-07-21 05:52:00,
2013-07-20 22:01:00,54.0,44.0,-100.00,WNW,300,7.0,14.0,68,0.00,,,0.13,,2013-07-21 06:01:00,
2013-07-20 22:11:00,54.0,44.0,-100.00,WNW,300,7.0,14.0,68,0.00,,,0.13,,2013-07-21 06:11:00,
2013-07-20 22:22:00,54.0,44.0,-100.00,WNW,285,6.0,12.0,67,0.00,,,0.13,,2013-07-21 06:22:00,
2013-07-20 22:32:00,54.0,44.0,-100.00,WNW,285,6.0,12.0,67,0.00,,,0.13,,2013-07-21 06:32:00,
2013-07-20 22:42:00,54.0,44.0,-100.00,WNW,285,6.0,12.0,67,0.00,,,0.13,,2013-07-21 06:42:00,
2013-07-20 22:52:00,54.0,44.0,-100.00,West,280,8.0,12.0,67,0.00,,,0.12,,2013-07-21 06:52:00,
2013-07-20 23:01:00,54.0,44.0,-100.00,West,280,8.0,12.0,67,0.00,,,0.12,,2013-07-21 07:01:00,
2013-07-20 23:11:00,54.0,44.0,-100.00,West,280,8.0,12.0,67,0.00,,,0.12,,2013-07-21 07:11:00,
2013-07-20 23:22:00,54.0,43.0,-100.00,West,275,9.0,13.0,65,0.00,,,0.11,,2013-07-21 07:22:00,
2013-07-20 23:32:00,54.0,43.0,-100.00,West,275,9.0,13.0,65,0.00,,,0.11,,2013-07-21 07:32:00,
2013-07-20 23:43:00,54.0,43.0,-100.00,West,275,9.0,13.0,65,0.00,,,0.11,,2013-07-21 07:43:00,
2013-07-20 23:52:00,54.0,43.0,-100.00,West,275,6.0,13.0,65,0.00,,,0.11,,2013-07-21 07:52:00,